| time (UTC) | temp F | wind direction | speed MPH | gust MPH | rain 1hr in | rain 24hr in | rain mn in | humidity % | barometer mb |
| 20260905025503 | 60 | 274 | 19.0 | 39.0 | 0.00 | 0.18 | 0.17 | 67 | 1013.1 |
| 20260905025003 | 60 | 274 | 19.0 | 37.0 | 0.00 | 0.18 | 0.17 | 70 | 1013.2 |
| 20260905024503 | 60 | 272 | 18.0 | 37.0 | 0.00 | 0.18 | 0.17 | 70 | 1013.2 |
| 20260905024004 | 59 | 270 | 18.0 | 33.0 | 0.00 | 0.18 | 0.17 | 71 | 1013.2 |
| 20260905023503 | 59 | 267 | 20.0 | 33.0 | 0.00 | 0.18 | 0.17 | 71 | 1013.3 |
| 20260905023003 | 59 | 268 | 20.0 | 37.0 | 0.00 | 0.18 | 0.17 | 69 | 1013.3 |
| 20260905022504 | 60 | 276 | 18.0 | 37.0 | 0.00 | 0.18 | 0.17 | 68 | 1013.3 |
| 20260905022024 | 60 | 280 | 18.0 | 32.0 | 0.00 | 0.18 | 0.17 | 69 | 1013.4 |
| 20260905021503 | 59 | 277 | 18.0 | 27.0 | 0.00 | 0.18 | 0.17 | 72 | 1013.3 |
| 20260905021004 | 59 | 274 | 19.0 | 32.0 | 0.00 | 0.18 | 0.17 | 72 | 1013.2 |
| 20260905020503 | 59 | 279 | 18.0 | 33.0 | 0.00 | 0.18 | 0.17 | 72 | 1013.1 |
| 20260905020003 | 59 | 272 | 18.0 | 33.0 | 0.00 | 0.19 | 0.17 | 72 | 1013.2 |
| 20260905015503 | 59 | 261 | 18.0 | 33.0 | 0.00 | 0.21 | 0.17 | 73 | 1013.2 |
| 20260905015003 | 58 | 260 | 18.0 | 33.0 | 0.00 | 0.23 | 0.17 | 72 | 1013.2 |
| 20260905014504 | 58 | 254 | 19.0 | 37.0 | 0.00 | 0.25 | 0.17 | 73 | 1013.1 |
| 20260905014003 | 58 | 260 | 20.0 | 37.0 | 0.00 | 0.26 | 0.17 | 72 | 1013.2 |
| 20260905013504 | 59 | 266 | 18.0 | 36.0 | 0.00 | 0.26 | 0.17 | 71 | 1013.0 |
| 20260905013003 | 59 | 266 | 16.0 | 37.0 | 0.02 | 0.26 | 0.17 | 72 | 1013.1 |
| 20260905012503 | 58 | 261 | 15.0 | 37.0 | 0.05 | 0.26 | 0.17 | 77 | 1013.0 |
| 20260905012004 | 57 | 261 | 15.0 | 27.0 | 0.05 | 0.26 | 0.17 | 78 | 1012.9 |
| 20260905011503 | 57 | 267 | 15.0 | 29.0 | 0.05 | 0.26 | 0.17 | 81 | 1012.8 |
| 20260905011003 | 56 | 265 | 14.0 | 30.0 | 0.05 | 0.26 | 0.17 | 82 | 1012.6 |
| 20260905010503 | 56 | 262 | 14.0 | 30.0 | 0.05 | 0.27 | 0.17 | 83 | 1012.5 |
| 20260905010004 | 56 | 255 | 14.0 | 29.0 | 0.05 | 0.27 | 0.17 | 85 | 1012.4 |
| 20260905005503 | 56 | 252 | 14.0 | 23.0 | 0.05 | 0.27 | 0.17 | 86 | 1012.3 |
| 20260905005003 | 56 | 256 | 15.0 | 27.0 | 0.06 | 0.27 | 0.17 | 88 | 1012.3 |
| 20260905004503 | 56 | 265 | 18.0 | 27.0 | 0.13 | 0.27 | 0.17 | 89 | 1012.3 |
| 20260905004004 | 56 | 274 | 20.0 | 39.0 | 0.17 | 0.27 | 0.17 | 88 | 1012.2 |
| 20260905003504 | 55 | 265 | 20.0 | 41.0 | 0.17 | 0.27 | 0.17 | 87 | 1012.1 |
| 20260905003004 | 55 | 261 | 16.0 | 43.0 | 0.15 | 0.24 | 0.15 | 86 | 1012.0 |
| 20260905002504 | 56 | 268 | 14.0 | 43.0 | 0.13 | 0.22 | 0.13 | 87 | 1011.9 |
| 20260905002004 | 55 | 270 | 14.0 | 27.0 | 0.13 | 0.22 | 0.13 | 88 | 1011.8 |
| 20260905001525 | 55 | 273 | 14.0 | 27.0 | 0.13 | 0.22 | 0.13 | 88 | 1011.8 |
| 20260905001004 | 54 | 275 | 14.0 | 27.0 | 0.13 | 0.22 | 0.13 | 88 | 1011.7 |
| 20260905000504 | 54 | 274 | 15.0 | 27.0 | 0.13 | 0.22 | 0.13 | 88 | 1011.7 |
| 20260905000004 | 54 | 272 | 17.0 | 29.0 | 0.13 | 0.22 | 0.13 | 87 | 1011.7 |
| 20260904235504 | 55 | 266 | 17.0 | 34.0 | 0.13 | 0.22 | 0.13 | 86 | 1011.8 |
| 20260904235004 | 56 | 261 | 17.0 | 34.0 | 0.11 | 0.20 | 0.11 | 84 | 1011.7 |
| 20260904234525 | 58 | 278 | 17.0 | 28.0 | 0.05 | 0.14 | 0.06 | 81 | 1011.7 |
| 20260904234025 | 58 | 298 | 17.0 | 28.0 | 0.00 | 0.09 | 0.00 | 78 | 1010.7 |
| 20260904233504 | 58 | 301 | 17.0 | 27.0 | 0.00 | 0.09 | 0.00 | 78 | 1010.7 |
| 20260904233004 | 58 | 299 | 17.0 | 29.0 | 0.00 | 0.09 | 0.00 | 78 | 1010.8 |
| 20260904232504 | 59 | 299 | 16.0 | 32.0 | 0.00 | 0.09 | 0.00 | 77 | 1010.8 |
| 20260904232004 | 59 | 301 | 15.0 | 32.0 | 0.00 | 0.09 | 0.00 | 77 | 1010.9 |
| 20260904231504 | 59 | 299 | 13.0 | 25.0 | 0.00 | 0.09 | 0.00 | 78 | 1010.9 |
| 20260904231004 | 58 | 299 | 12.0 | 25.0 | 0.00 | 0.09 | 0.00 | 78 | 1011.0 |
| 20260904230504 | 58 | 302 | 12.0 | 20.0 | 0.00 | 0.09 | 0.00 | 79 | 1011.0 |
| 20260904230004 | 58 | 301 | 13.0 | 20.0 | 0.00 | 0.09 | 0.00 | 79 | 1010.8 |
| 20260904225504 | 58 | 304 | 12.0 | 20.0 | 0.00 | 0.09 | 0.00 | 79 | 1010.9 |
| 20260904225004 | 58 | 308 | 12.0 | 20.0 | 0.00 | 0.09 | 0.00 | 79 | 1010.8 |
| 20260904224504 | 58 | 305 | 11.0 | 20.0 | 0.00 | 0.09 | 0.00 | 79 | 1010.8 |
| 20260904224004 | 58 | 300 | 12.0 | 20.0 | 0.00 | 0.09 | 0.00 | 79 | 1010.9 |
| 20260904223525 | 58 | 300 | 12.0 | 20.0 | 0.00 | 0.09 | 0.00 | 78 | 1010.8 |
| 20260904223004 | 58 | 297 | 11.0 | 20.0 | 0.00 | 0.09 | 0.00 | 78 | 1010.8 |
| 20260904222525 | 58 | 297 | 11.0 | 20.0 | 0.00 | 0.09 | 0.00 | 77 | 1010.8 |
| 20260904222004 | 58 | 292 | 11.0 | 18.0 | 0.00 | 0.09 | 0.00 | 76 | 1010.8 |
| 20260904221504 | 58 | 286 | 12.0 | 20.0 | 0.00 | 0.09 | 0.00 | 76 | 1010.8 |
| 20260904221004 | 58 | 287 | 13.0 | 20.0 | 0.00 | 0.09 | 0.00 | 76 | 1010.7 |
| 20260904220504 | 57 | 291 | 12.0 | 20.0 | 0.00 | 0.09 | 0.00 | 77 | 1010.5 |
| 20260904220004 | 57 | 292 | 12.0 | 19.0 | 0.00 | 0.09 | 0.00 | 77 | 1010.6 |
| 20260904215504 | 57 | 291 | 11.0 | 18.0 | 0.00 | 0.09 | 0.00 | 77 | 1010.6 |
| 20260904215004 | 57 | 290 | 11.0 | 19.0 | 0.00 | 0.09 | 0.00 | 77 | 1010.6 |
| 20260904214504 | 57 | 288 | 11.0 | 19.0 | 0.00 | 0.09 | 0.00 | 77 | 1010.6 |
| 20260904214025 | 57 | 286 | 11.0 | 19.0 | 0.00 | 0.09 | 0.00 | 77 | 1010.5 |
| 20260904213504 | 57 | 285 | 11.0 | 19.0 | 0.00 | 0.09 | 0.00 | 77 | 1010.5 |
| 20260904213004 | 57 | 283 | 12.0 | 23.0 | 0.00 | 0.09 | 0.00 | 76 | 1010.4 |
| 20260904212504 | 57 | 281 | 13.0 | 23.0 | 0.00 | 0.09 | 0.00 | 76 | 1010.3 |
| 20260904212004 | 57 | 276 | 14.0 | 24.0 | 0.00 | 0.10 | 0.00 | 76 | 1010.3 |
| 20260904211504 | 57 | 273 | 15.0 | 24.0 | 0.00 | 0.10 | 0.00 | 75 | 1010.3 |
| 20260904211004 | 57 | 273 | 16.0 | 29.0 | 0.00 | 0.10 | 0.00 | 74 | 1010.1 |
| 20260904210504 | 58 | 271 | 16.0 | 29.0 | 0.00 | 0.10 | 0.00 | 74 | 1010.1 |
| 20260904210004 | 58 | 272 | 15.0 | 28.0 | 0.00 | 0.10 | 0.00 | 75 | 1010.0 |
| 20260904205504 | 58 | 271 | 15.0 | 25.0 | 0.00 | 0.10 | 0.00 | 75 | 1010.0 |
| 20260904205004 | 58 | 270 | 16.0 | 27.0 | 0.00 | 0.10 | 0.00 | 75 | 1010.0 |
| 20260904204504 | 58 | 274 | 17.0 | 29.0 | 0.00 | 0.10 | 0.00 | 75 | 1009.8 |
| 20260904204025 | 58 | 280 | 17.0 | 29.0 | 0.00 | 0.10 | 0.00 | 74 | 1009.8 |
| 20260904203504 | 58 | 280 | 18.0 | 36.0 | 0.00 | 0.10 | 0.00 | 74 | 1009.8 |
| 20260904203004 | 59 | 278 | 18.0 | 36.0 | 0.00 | 0.10 | 0.00 | 75 | 1009.7 |
| 20260904202504 | 59 | 279 | 17.0 | 30.0 | 0.00 | 0.10 | 0.00 | 77 | 1009.5 |
| 20260904202004 | 59 | 280 | 15.0 | 29.0 | 0.00 | 0.10 | 0.00 | 78 | 1009.5 |
| 20260904201504 | 59 | 282 | 14.0 | 29.0 | 0.00 | 0.10 | 0.00 | 79 | 1009.4 |
| 20260904201024 | 59 | 286 | 14.0 | 25.0 | 0.00 | 0.10 | 0.00 | 80 | 1009.2 |
| 20260904200503 | 59 | 290 | 14.0 | 24.0 | 0.00 | 0.10 | 0.00 | 80 | 1009.3 |
| 20260904200004 | 59 | 291 | 13.0 | 24.0 | 0.00 | 0.10 | 0.00 | 80 | 1009.2 |
| 20260904195503 | 59 | 298 | 13.0 | 24.0 | 0.00 | 0.10 | 0.00 | 80 | 1009.1 |
| 20260904195025 | 59 | 299 | 13.0 | 24.0 | 0.00 | 0.10 | 0.00 | 80 | 1009.1 |
| 20260904194504 | 59 | 295 | 13.0 | 24.0 | 0.00 | 0.10 | 0.00 | 80 | 1009.1 |
| 20260904194003 | 59 | 293 | 13.0 | 20.0 | 0.00 | 0.10 | 0.00 | 81 | 1008.9 |
| 20260904193525 | 59 | 296 | 13.0 | 20.0 | 0.00 | 0.10 | 0.00 | 81 | 1008.8 |
| 20260904193004 | 59 | 299 | 12.0 | 20.0 | 0.00 | 0.10 | 0.00 | 82 | 1008.8 |
| 20260904192524 | 59 | 303 | 11.0 | 24.0 | 0.00 | 0.10 | 0.00 | 82 | 1008.7 |
| 20260904192004 | 59 | 305 | 10.0 | 24.0 | 0.00 | 0.10 | 0.00 | 83 | 1008.8 |
| 20260904191525 | 59 | 307 | 10.0 | 17.0 | 0.00 | 0.10 | 0.00 | 84 | 1008.9 |
| 20260904191003 | 59 | 312 | 10.0 | 17.0 | 0.00 | 0.10 | 0.00 | 84 | 1008.8 |
| 20260904190504 | 59 | 314 | 10.0 | 17.0 | 0.00 | 0.10 | 0.00 | 84 | 1008.8 |
| 20260904190004 | 59 | 314 | 10.0 | 17.0 | 0.00 | 0.10 | 0.00 | 84 | 1008.6 |
| 20260904185504 | 59 | 310 | 10.0 | 15.0 | 0.00 | 0.10 | 0.00 | 83 | 1008.6 |
| 20260904185003 | 59 | 312 | 10.0 | 17.0 | 0.00 | 0.10 | 0.00 | 84 | 1008.5 |
| 20260904184504 | 59 | 317 | 10.0 | 17.0 | 0.00 | 0.10 | 0.00 | 84 | 1008.3 |
| 20260904184004 | 59 | 318 | 10.0 | 17.0 | 0.00 | 0.10 | 0.00 | 84 | 1008.3 |
| 20260904183525 | 59 | 317 | 9.0 | 17.0 | 0.00 | 0.10 | 0.00 | 84 | 1008.5 |
| 20260904183004 | 59 | 316 | 9.0 | 15.0 | 0.00 | 0.10 | 0.00 | 83 | 1008.5 |
| 20260904182503 | 59 | 319 | 8.0 | 15.0 | 0.00 | 0.10 | 0.00 | 83 | 1008.5 |
| 20260904182003 | 59 | 324 | 8.0 | 14.0 | 0.00 | 0.10 | 0.00 | 83 | 1008.3 |
| 20260904181503 | 59 | 322 | 8.0 | 13.0 | 0.00 | 0.10 | 0.00 | 83 | 1008.4 |
| 20260904181004 | 59 | 322 | 9.0 | 15.0 | 0.00 | 0.10 | 0.00 | 83 | 1008.2 |
| 20260904180524 | 59 | 325 | 9.0 | 15.0 | 0.00 | 0.10 | 0.00 | 83 | 1008.2 |
| 20260904180025 | 59 | 326 | 9.0 | 15.0 | 0.00 | 0.10 | 0.00 | 83 | 1008.4 |
| 20260904175504 | 59 | 327 | 9.0 | 15.0 | 0.00 | 0.10 | 0.00 | 83 | 1008.3 |
| 20260904175004 | 60 | 327 | 9.0 | 15.0 | 0.00 | 0.10 | 0.00 | 82 | 1008.2 |
| 20260904174503 | 60 | 326 | 9.0 | 14.0 | 0.00 | 0.10 | 0.00 | 82 | 1008.2 |
| 20260904174025 | 60 | 327 | 9.0 | 15.0 | 0.00 | 0.10 | 0.00 | 82 | 1008.4 |
| 20260904173503 | 60 | 332 | 8.0 | 15.0 | 0.00 | 0.10 | 0.00 | 82 | 1008.4 |
| 20260904173024 | 60 | 337 | 8.0 | 15.0 | 0.00 | 0.10 | 0.00 | 82 | 1008.2 |
| 20260904172525 | 60 | 338 | 8.0 | 13.0 | 0.00 | 0.10 | 0.00 | 82 | 1008.1 |
| 20260904172004 | 60 | 336 | 8.0 | 14.0 | 0.00 | 0.10 | 0.00 | 82 | 1008.2 |
| 20260904171504 | 60 | 341 | 8.0 | 14.0 | 0.00 | 0.10 | 0.00 | 82 | 1008.2 |
| 20260904171003 | 60 | 343 | 8.0 | 13.0 | 0.00 | 0.10 | 0.00 | 82 | 1008.2 |
| 20260904170504 | 60 | 343 | 7.0 | 13.0 | 0.00 | 0.10 | 0.00 | 82 | 1008.2 |
| 20260904170004 | 60 | 340 | 7.0 | 13.0 | 0.00 | 0.10 | 0.00 | 81 | 1008.2 |
| 20260904165503 | 60 | 331 | 6.0 | 11.0 | 0.00 | 0.10 | 0.00 | 82 | 1008.2 |
| 20260904165024 | 60 | 326 | 6.0 | 11.0 | 0.00 | 0.10 | 0.00 | 82 | 1008.2 |
| 20260904164525 | 60 | 328 | 6.0 | 11.0 | 0.00 | 0.10 | 0.00 | 82 | 1008.3 |
| 20260904164003 | 60 | 332 | 5.0 | 11.0 | 0.00 | 0.10 | 0.00 | 82 | 1008.3 |
| 20260904163503 | 60 | 342 | 6.0 | 14.0 | 0.00 | 0.10 | 0.00 | 81 | 1008.3 |
| 20260904163003 | 60 | 355 | 7.0 | 14.0 | 0.00 | 0.10 | 0.00 | 82 | 1008.2 |
| 20260904162503 | 60 | 359 | 7.0 | 11.0 | 0.00 | 0.10 | 0.00 | 81 | 1008.2 |
| 20260904162004 | 60 | 353 | 7.0 | 13.0 | 0.00 | 0.10 | 0.00 | 81 | 1008.5 |
| 20260904161504 | 60 | 348 | 7.0 | 13.0 | 0.00 | 0.10 | 0.00 | 81 | 1008.3 |
| 20260904161025 | 60 | 349 | 7.0 | 11.0 | 0.00 | 0.10 | 0.00 | 80 | 1008.4 |
| 20260904160525 | 60 | 348 | 8.0 | 14.0 | 0.00 | 0.10 | 0.00 | 80 | 1008.5 |
| 20260904160004 | 61 | 349 | 8.0 | 14.0 | 0.00 | 0.10 | 0.00 | 80 | 1008.6 |
| 20260904155503 | 61 | 354 | 7.0 | 11.0 | 0.00 | 0.10 | 0.00 | 79 | 1008.6 |
| 20260904155003 | 61 | 352 | 7.0 | 14.0 | 0.00 | 0.10 | 0.00 | 79 | 1008.4 |
| 20260904154525 | 61 | 344 | 6.0 | 14.0 | 0.00 | 0.10 | 0.00 | 78 | 1008.3 |
| 20260904154025 | 61 | 344 | 6.0 | 11.0 | 0.00 | 0.10 | 0.00 | 77 | 1008.2 |
| 20260904153524 | 62 | 345 | 6.0 | 11.0 | 0.00 | 0.10 | 0.00 | 77 | 1008.2 |
| 20260904153024 | 62 | 335 | 6.0 | 11.0 | 0.00 | 0.10 | 0.00 | 76 | 1008.1 |
| 20260904152503 | 62 | 316 | 7.0 | 10.0 | 0.00 | 0.10 | 0.00 | 75 | 1008.2 |
| 20260904152024 | 62 | 306 | 7.0 | 13.0 | 0.00 | 0.10 | 0.00 | 75 | 1008.3 |
| 20260904151504 | 62 | 304 | 6.0 | 14.0 | 0.00 | 0.10 | 0.00 | 75 | 1008.1 |
| 20260904151003 | 62 | 310 | 5.0 | 14.0 | 0.00 | 0.10 | 0.00 | 75 | 1008.1 |
| 20260904150503 | 62 | 311 | 5.0 | 10.0 | 0.00 | 0.10 | 0.00 | 76 | 1008.1 |
| 20260904150004 | 62 | 306 | 5.0 | 10.0 | 0.00 | 0.10 | 0.00 | 76 | 1008.1 |
| 20260904145503 | 62 | 320 | 6.0 | 11.0 | 0.00 | 0.10 | 0.00 | 75 | 1008.0 |
| 20260904145025 | 62 | 323 | 6.0 | 11.0 | 0.00 | 0.10 | 0.00 | 75 | 1007.9 |
| 20260904144503 | 62 | 330 | 6.0 | 11.0 | 0.00 | 0.10 | 0.00 | 75 | 1007.9 |
| 20260904144025 | 62 | 348 | 6.0 | 11.0 | 0.00 | 0.10 | 0.00 | 75 | 1007.8 |
| 20260904143503 | 62 | 354 | 7.0 | 10.0 | 0.00 | 0.10 | 0.00 | 75 | 1007.4 |
| 20260904143006 | 62 | 353 | 7.0 | 11.0 | 0.00 | 0.10 | 0.00 | 75 | 1007.5 |
| 20260904142503 | 62 | 352 | 8.0 | 11.0 | 0.00 | 0.10 | 0.10 | 74 | 1007.5 |
| 20260904142004 | 62 | 349 | 9.0 | 15.0 | 0.00 | 0.10 | 0.10 | 74 | 1007.6 |
| 20260904141503 | 63 | 349 | 9.0 | 15.0 | 0.00 | 0.10 | 0.10 | 74 | 1007.8 |
| 20260904141003 | 62 | 349 | 9.0 | 15.0 | 0.00 | 0.10 | 0.10 | 74 | 1008.0 |
| 20260904140504 | 63 | 344 | 9.0 | 14.0 | 0.00 | 0.10 | 0.10 | 74 | 1008.0 |
| 20260904140004 | 63 | 340 | 9.0 | 14.0 | 0.00 | 0.10 | 0.10 | 73 | 1008.2 |
| 20260904135504 | 63 | 341 | 9.0 | 14.0 | 0.00 | 0.10 | 0.10 | 73 | 1008.3 |
| 20260904135003 | 63 | 338 | 10.0 | 13.0 | 0.00 | 0.10 | 0.10 | 72 | 1008.1 |
| 20260904134504 | 64 | 342 | 10.0 | 18.0 | 0.00 | 0.10 | 0.10 | 72 | 1008.0 |
| 20260904134004 | 64 | 346 | 10.0 | 18.0 | 0.00 | 0.10 | 0.10 | 72 | 1008.0 |
| 20260904133504 | 64 | 347 | 10.0 | 18.0 | 0.00 | 0.10 | 0.10 | 72 | 1007.9 |
| 20260904133004 | 64 | 353 | 10.0 | 17.0 | 0.00 | 0.10 | 0.10 | 72 | 1007.7 |
| 20260904132504 | 64 | 2 | 10.0 | 15.0 | 0.00 | 0.10 | 0.10 | 72 | 1007.6 |
| 20260904132025 | 64 | 7 | 11.0 | 17.0 | 0.00 | 0.10 | 0.10 | 72 | 1007.6 |
| 20260904131504 | 64 | 7 | 11.0 | 17.0 | 0.00 | 0.10 | 0.10 | 71 | 1007.7 |
| 20260904131025 | 64 | 7 | 11.0 | 19.0 | 0.01 | 0.10 | 0.10 | 71 | 1007.8 |
| 20260904130525 | 64 | 6 | 11.0 | 19.0 | 0.01 | 0.10 | 0.10 | 71 | 1007.9 |
| 20260904130025 | 64 | 2 | 10.0 | 20.0 | 0.01 | 0.10 | 0.10 | 71 | 1007.7 |
| 20260904125505 | 64 | 8 | 9.0 | 20.0 | 0.01 | 0.10 | 0.10 | 72 | 1007.9 |
| 20260904125004 | 64 | 11 | 9.0 | 15.0 | 0.01 | 0.10 | 0.10 | 72 | 1007.7 |
| 20260904124525 | 64 | 10 | 9.0 | 15.0 | 0.01 | 0.10 | 0.10 | 72 | 1007.7 |
| 20260904124004 | 64 | 16 | 9.0 | 14.0 | 0.01 | 0.10 | 0.10 | 73 | 1007.8 |
| 20260904123504 | 64 | 16 | 9.0 | 15.0 | 0.01 | 0.10 | 0.10 | 73 | 1007.8 |
| 20260904123004 | 64 | 15 | 9.0 | 17.0 | 0.01 | 0.10 | 0.10 | 73 | 1008.0 |
| 20260904122504 | 64 | 16 | 9.0 | 17.0 | 0.01 | 0.10 | 0.10 | 73 | 1008.2 |
| 20260904122004 | 64 | 15 | 9.0 | 17.0 | 0.01 | 0.10 | 0.10 | 73 | 1008.2 |
| 20260904121504 | 64 | 17 | 9.0 | 17.0 | 0.01 | 0.10 | 0.10 | 73 | 1008.4 |
| 20260904121004 | 64 | 16 | 9.0 | 15.0 | 0.00 | 0.09 | 0.09 | 73 | 1008.4 |
| 20260904120504 | 64 | 12 | 9.0 | 14.0 | 0.00 | 0.09 | 0.09 | 73 | 1008.4 |
| 20260904120004 | 64 | 13 | 9.0 | 14.0 | 0.00 | 0.09 | 0.09 | 74 | 1008.4 |
| 20260904115504 | 64 | 12 | 9.0 | 14.0 | 0.00 | 0.09 | 0.09 | 74 | 1008.4 |
| 20260904115004 | 64 | 11 | 8.0 | 17.0 | 0.00 | 0.09 | 0.09 | 74 | 1008.5 |
| 20260904114504 | 64 | 11 | 9.0 | 17.0 | 0.00 | 0.09 | 0.09 | 74 | 1008.5 |
| 20260904114025 | 64 | 10 | 10.0 | 17.0 | 0.00 | 0.09 | 0.09 | 74 | 1008.7 |
| 20260904113504 | 64 | 6 | 11.0 | 17.0 | 0.00 | 0.09 | 0.09 | 73 | 1008.7 |
| 20260904113004 | 65 | 3 | 11.0 | 19.0 | 0.00 | 0.09 | 0.09 | 73 | 1008.7 |
| 20260904112504 | 65 | 2 | 10.0 | 19.0 | 0.00 | 0.09 | 0.09 | 73 | 1008.8 |
| 20260904112025 | 65 | 1 | 9.0 | 19.0 | 0.00 | 0.09 | 0.09 | 73 | 1008.9 |
| 20260904111504 | 65 | 3 | 9.0 | 19.0 | 0.00 | 0.09 | 0.09 | 73 | 1008.8 |
| 20260904111004 | 65 | 6 | 9.0 | 17.0 | 0.00 | 0.09 | 0.09 | 72 | 1008.7 |
| 20260904110504 | 65 | 2 | 10.0 | 17.0 | 0.00 | 0.09 | 0.09 | 72 | 1008.8 |
| 20260904110004 | 66 | 2 | 10.0 | 20.0 | 0.00 | 0.09 | 0.09 | 71 | 1008.8 |
| 20260904105525 | 66 | 3 | 11.0 | 20.0 | 0.00 | 0.09 | 0.09 | 71 | 1008.8 |
| 20260904105004 | 66 | 359 | 11.0 | 18.0 | 0.00 | 0.09 | 0.09 | 71 | 1008.7 |
| 20260904104504 | 66 | 2 | 12.0 | 24.0 | 0.00 | 0.09 | 0.09 | 70 | 1008.8 |
| 20260904104025 | 66 | 3 | 13.0 | 24.0 | 0.00 | 0.09 | 0.09 | 70 | 1008.5 |
| 20260904103504 | 66 | 3 | 13.0 | 23.0 | 0.00 | 0.09 | 0.09 | 69 | 1008.6 |
| 20260904103004 | 67 | 7 | 12.0 | 23.0 | 0.00 | 0.09 | 0.09 | 69 | 1008.5 |
| 20260904102504 | 67 | 4 | 12.0 | 23.0 | 0.00 | 0.09 | 0.09 | 69 | 1008.3 |
| 20260904102004 | 67 | 358 | 12.0 | 20.0 | 0.00 | 0.09 | 0.09 | 69 | 1008.6 |
| 20260904101504 | 67 | 357 | 12.0 | 18.0 | 0.00 | 0.09 | 0.09 | 68 | 1008.7 |
| 20260904101004 | 67 | 1 | 11.0 | 20.0 | 0.00 | 0.09 | 0.09 | 68 | 1009.1 |
| 20260904100504 | 67 | 2 | 11.0 | 20.0 | 0.00 | 0.09 | 0.09 | 68 | 1008.6 |
| 20260904100004 | 67 | 4 | 10.0 | 17.0 | 0.00 | 0.09 | 0.09 | 69 | 1008.9 |
| 20260904095504 | 67 | 18 | 11.0 | 18.0 | 0.00 | 0.09 | 0.09 | 70 | 1008.8 |
| 20260904095004 | 67 | 27 | 11.0 | 19.0 | 0.00 | 0.09 | 0.09 | 70 | 1008.6 |
| 20260904094504 | 67 | 24 | 11.0 | 20.0 | 0.00 | 0.09 | 0.09 | 70 | 1008.6 |
| 20260904094004 | 67 | 18 | 10.0 | 20.0 | 0.00 | 0.09 | 0.09 | 70 | 1008.5 |
| 20260904093504 | 67 | 19 | 10.0 | 17.0 | 0.00 | 0.09 | 0.09 | 70 | 1008.5 |
| 20260904093004 | 67 | 22 | 10.0 | 18.0 | 0.00 | 0.09 | 0.09 | 70 | 1008.3 |
| 20260904092504 | 67 | 21 | 10.0 | 18.0 | 0.00 | 0.09 | 0.09 | 70 | 1008.3 |
| 20260904092004 | 67 | 24 | 9.0 | 18.0 | 0.00 | 0.09 | 0.09 | 71 | 1008.2 |
| 20260904091525 | 66 | 30 | 8.0 | 18.0 | 0.00 | 0.09 | 0.09 | 72 | 1008.3 |
| 20260904091025 | 66 | 38 | 8.0 | 14.0 | 0.00 | 0.09 | 0.09 | 74 | 1008.3 |
| 20260904090504 | 66 | 42 | 7.0 | 17.0 | 0.00 | 0.09 | 0.09 | 75 | 1008.2 |
| 20260904090025 | 66 | 49 | 7.0 | 17.0 | 0.00 | 0.09 | 0.09 | 75 | 1008.2 |
| 20260904085505 | 66 | 55 | 7.0 | 13.0 | 0.00 | 0.09 | 0.09 | 76 | 1008.3 |
| 20260904085004 | 66 | 60 | 8.0 | 15.0 | 0.00 | 0.09 | 0.09 | 75 | 1008.3 |
| 20260904084525 | 67 | 49 | 9.0 | 15.0 | 0.00 | 0.09 | 0.09 | 75 | 1008.2 |
| 20260904084004 | 67 | 35 | 7.0 | 18.0 | 0.00 | 0.09 | 0.09 | 75 | 1008.4 |
| 20260904083504 | 66 | 42 | 5.0 | 18.0 | 0.00 | 0.09 | 0.09 | 76 | 1008.4 |
| 20260904083004 | 66 | 51 | 4.0 | 17.0 | 0.00 | 0.09 | 0.09 | 77 | 1008.2 |
| 20260904082504 | 66 | 56 | 4.0 | 11.0 | 0.00 | 0.09 | 0.09 | 77 | 1008.2 |
| 20260904082004 | 66 | 49 | 6.0 | 10.0 | 0.00 | 0.09 | 0.09 | 77 | 1008.2 |
| 20260904081525 | 66 | 45 | 6.0 | 14.0 | 0.00 | 0.09 | 0.09 | 78 | 1008.2 |
| 20260904081004 | 66 | 43 | 7.0 | 15.0 | 0.00 | 0.09 | 0.09 | 78 | 1008.1 |
| 20260904080525 | 66 | 49 | 6.0 | 15.0 | 0.00 | 0.09 | 0.09 | 78 | 1008.1 |
| 20260904080025 | 66 | 66 | 5.0 | 13.0 | 0.00 | 0.09 | 0.09 | 79 | 1008.1 |
| 20260904075504 | 66 | 66 | 4.0 | 13.0 | 0.00 | 0.09 | 0.09 | 79 | 1008.3 |
| 20260904075004 | 66 | 54 | 4.0 | 10.0 | 0.00 | 0.09 | 0.09 | 78 | 1008.5 |
| 20260904074504 | 66 | 56 | 5.0 | 10.0 | 0.00 | 0.09 | 0.09 | 78 | 1008.4 |
| 20260904074003 | 67 | 64 | 4.0 | 10.0 | 0.00 | 0.09 | 0.09 | 78 | 1008.4 |
| 20260904073504 | 67 | 60 | 4.0 | 9.0 | 0.00 | 0.09 | 0.09 | 77 | 1008.4 |
| 20260904073025 | 67 | 57 | 4.0 | 11.0 | 0.00 | 0.09 | 0.09 | 77 | 1008.5 |
| 20260904072525 | 67 | 61 | 4.0 | 11.0 | 0.00 | 0.09 | 0.09 | 77 | 1008.4 |
| 20260904072025 | 67 | 55 | 3.0 | 11.0 | 0.00 | 0.09 | 0.09 | 77 | 1008.4 |
| 20260904071504 | 67 | 62 | 3.0 | 10.0 | 0.00 | 0.09 | 0.09 | 76 | 1008.5 |
| 20260904071003 | 67 | 66 | 4.0 | 10.0 | 0.00 | 0.09 | 0.09 | 76 | 1008.5 |
| 20260904070504 | 68 | 58 | 5.0 | 10.0 | 0.00 | 0.09 | 0.09 | 76 | 1008.5 |
| 20260904070004 | 68 | 54 | 6.0 | 15.0 | 0.00 | 0.09 | 0.09 | 76 | 1008.7 |
| 20260904065504 | 68 | 48 | 6.0 | 15.0 | 0.00 | 0.09 | 0.09 | 76 | 1008.8 |
| 20260904065003 | 68 | 45 | 6.0 | 11.0 | 0.00 | 0.09 | 0.09 | 76 | 1008.8 |
| 20260904064504 | 68 | 39 | 6.0 | 13.0 | 0.00 | 0.09 | 0.09 | 76 | 1008.8 |
| 20260904064003 | 68 | 38 | 6.0 | 13.0 | 0.00 | 0.09 | 0.09 | 76 | 1008.9 |
| 20260904063504 | 68 | 47 | 6.0 | 13.0 | 0.00 | 0.09 | 0.09 | 75 | 1008.8 |
| 20260904063004 | 68 | 57 | 7.0 | 13.0 | 0.00 | 0.09 | 0.09 | 75 | 1008.8 |
| 20260904062504 | 68 | 72 | 8.0 | 13.0 | 0.00 | 0.09 | 0.09 | 74 | 1008.7 |
| 20260904062003 | 69 | 77 | 8.0 | 14.0 | 0.00 | 0.09 | 0.09 | 73 | 1008.7 |
| 20260904061525 | 69 | 67 | 7.0 | 14.0 | 0.00 | 0.09 | 0.09 | 72 | 1008.7 |
| 20260904061003 | 70 | 59 | 8.0 | 13.0 | 0.00 | 0.09 | 0.09 | 71 | 1008.8 |
| 20260904060503 | 71 | 62 | 8.0 | 15.0 | 0.00 | 0.09 | 0.09 | 70 | 1008.8 |
| 20260904060003 | 71 | 51 | 9.0 | 18.0 | 0.00 | 0.09 | 0.09 | 70 | 1008.8 |
| 20260904055525 | 71 | 51 | 9.0 | 18.0 | 0.00 | 0.09 | 0.09 | 69 | 1009.0 |
| 20260904055004 | 71 | 52 | 10.0 | 15.0 | 0.00 | 0.09 | 0.09 | 69 | 1009.0 |
| 20260904054525 | 71 | 46 | 10.0 | 15.0 | 0.00 | 0.09 | 0.09 | 70 | 1009.1 |
| 20260904054003 | 71 | 52 | 10.0 | 18.0 | 0.00 | 0.09 | 0.09 | 70 | 1009.1 |
| 20260904053504 | 71 | 58 | 9.0 | 18.0 | 0.00 | 0.09 | 0.09 | 70 | 1009.1 |
| 20260904053003 | 70 | 60 | 8.0 | 18.0 | 0.00 | 0.09 | 0.09 | 70 | 1009.2 |
| 20260904052504 | 70 | 64 | 8.0 | 14.0 | 0.00 | 0.09 | 0.09 | 72 | 1009.2 |
| 20260904052003 | 68 | 63 | 9.0 | 17.0 | 0.00 | 0.09 | 0.09 | 74 | 1009.2 |
| 20260904051524 | 67 | 68 | 9.0 | 18.0 | 0.00 | 0.09 | 0.09 | 75 | 1009.5 |
| 20260904051003 | 66 | 75 | 10.0 | 20.0 | 0.00 | 0.09 | 0.09 | 74 | 1009.7 |
| 20260904050504 | 66 | 74 | 9.0 | 20.0 | 0.00 | 0.09 | 0.09 | 75 | 1009.7 |
| 20260904050004 | 66 | 73 | 9.0 | 18.0 | 0.00 | 0.09 | 0.09 | 75 | 1009.8 |
| 20260904045524 | 65 | 74 | 9.0 | 17.0 | 0.00 | 0.09 | 0.09 | 75 | 1009.9 |
| 20260904045003 | 65 | 68 | 9.0 | 18.0 | 0.00 | 0.09 | 0.09 | 75 | 1010.0 |
| 20260904044503 | 65 | 63 | 10.0 | 23.0 | 0.00 | 0.09 | 0.09 | 75 | 1010.0 |
| 20260904044003 | 66 | 66 | 9.0 | 23.0 | 0.00 | 0.09 | 0.09 | 75 | 1010.0 |
| 20260904043503 | 66 | 66 | 10.0 | 23.0 | 0.00 | 0.09 | 0.09 | 74 | 1010.1 |
| 20260904043025 | 66 | 65 | 10.0 | 23.0 | 0.00 | 0.09 | 0.09 | 74 | 1010.1 |
| 20260904042503 | 66 | 67 | 10.0 | 25.0 | 0.00 | 0.09 | 0.09 | 75 | 1010.1 |
| 20260904042003 | 65 | 68 | 8.0 | 24.0 | 0.00 | 0.09 | 0.09 | 75 | 1010.0 |
| 20260904041503 | 65 | 69 | 8.0 | 20.0 | 0.00 | 0.09 | 0.09 | 76 | 1010.1 |
| 20260904041004 | 65 | 74 | 8.0 | 14.0 | 0.00 | 0.09 | 0.09 | 77 | 1010.3 |
| 20260904040504 | 64 | 77 | 7.0 | 15.0 | 0.00 | 0.09 | 0.09 | 77 | 1010.3 |
| 20260904040004 | 64 | 76 | 6.0 | 15.0 | 0.00 | 0.09 | 0.09 | 77 | 1010.7 |
| 20260904035503 | 64 | 70 | 5.0 | 14.0 | 0.00 | 0.09 | 0.09 | 76 | 1010.9 |
| 20260904035003 | 64 | 68 | 6.0 | 13.0 | 0.00 | 0.09 | 0.09 | 76 | 1011.0 |
| 20260904034503 | 64 | 69 | 6.0 | 13.0 | 0.00 | 0.09 | 0.09 | 75 | 1011.1 |
| 20260904034024 | 64 | 70 | 6.0 | 13.0 | 0.00 | 0.09 | 0.09 | 74 | 1011.1 |
| 20260904033504 | 65 | 60 | 7.0 | 14.0 | 0.00 | 0.09 | 0.09 | 74 | 1011.2 |
| 20260904033024 | 65 | 51 | 8.0 | 14.0 | 0.00 | 0.09 | 0.09 | 74 | 1011.4 |
| 20260904032525 | 65 | 56 | 8.0 | 14.0 | 0.00 | 0.09 | 0.09 | 74 | 1011.5 |
| 20260904032004 | 66 | 63 | 8.0 | 17.0 | 0.00 | 0.09 | 0.09 | 73 | 1011.6 |
| 20260904031503 | 66 | 62 | 8.0 | 18.0 | 0.00 | 0.09 | 0.09 | 73 | 1011.7 |
| 20260904031003 | 66 | 66 | 8.0 | 18.0 | 0.00 | 0.09 | 0.09 | 74 | 1011.8 |
| 20260904030503 | 66 | 65 | 8.0 | 14.0 | 0.00 | 0.09 | 0.09 | 75 | 1012.0 |
| 20260904030004 | 66 | 60 | 9.0 | 14.0 | 0.01 | 0.09 | 0.09 | 78 | 1012.2 |